Time;durP1;ratioP1;P1;durP2;ratioP2;P2;SDS_P1;SDS_P2;PMS_P1;PMS_P2;Temp;Humidity;BMP_temperature;BMP_pressure;BME280_temperature;BME280_humidity;BME280_pressure;Samples;Min_cycle;Max_cycle;Signal;HPM_P1;HPM_P2
2023/02/26 00:01:49;;;;;;;8.90;6.90;;;;;;;1.41;95.41;98062.65;106024;1255;74232;-73
2023/02/26 00:04:18;;;;;;;10.40;7.20;;;;;;;1.40;95.32;98069.39;105743;1260;71321;-74
2023/02/26 00:06:52;;;;;;;10.00;7.80;;;;;;;1.33;95.40;98070.57;105856;1260;72746;-79
2023/02/26 00:09:24;;;;;;;11.40;7.60;;;;;;;1.32;95.40;98067.88;106322;1255;62414;-78
2023/02/26 00:11:53;;;;;;;11.00;7.90;;;;;;;1.33;95.32;98079.80;105863;1259;61584;-78
2023/02/26 00:14:22;;;;;;;14.10;9.30;;;;;;;1.33;95.52;98086.80;105742;1261;73398;-80
2023/02/26 00:17:16;;;;;;;13.00;9.20;;;;;;;1.27;95.60;98094.70;105808;1255;70580;-85
2023/02/26 00:19:46;;;;;;;8.90;6.70;;;;;;;1.31;95.72;98094.17;106162;1255;72118;-81
2023/02/26 00:22:14;;;;;;;8.60;6.00;;;;;;;1.34;95.62;98089.81;108468;1255;59109;-77
2023/02/26 00:24:42;;;;;;;10.20;6.80;;;;;;;1.33;95.70;98096.54;107959;1260;59340;-76
2023/02/26 00:27:13;;;;;;;8.90;6.20;;;;;;;1.43;95.46;98101.73;105875;1260;73329;-77
2023/02/26 00:29:42;;;;;;;7.70;6.20;;;;;;;1.49;95.00;98110.23;105959;1255;69391;-78
2023/02/26 00:32:10;;;;;;;9.50;6.60;;;;;;;1.45;94.66;98110.96;108573;1257;72713;-81
2023/02/26 00:34:39;;;;;;;8.20;6.20;;;;;;;1.49;94.46;98118.85;109101;1257;60081;-77
2023/02/26 00:37:35;;;;;;;9.60;7.50;;;;;;;1.58;93.79;98120.09;109122;1258;59614;-75
2023/02/26 00:40:30;;;;;;;8.80;6.60;;;;;;;1.55;93.68;98097.75;108884;1257;72087;-79
2023/02/26 00:43:03;;;;;;;7.80;5.90;;;;;;;1.50;93.75;98088.32;109109;1259;69314;-81
2023/02/26 00:45:34;;;;;;;8.90;6.20;;;;;;;1.55;93.10;98079.45;109105;1257;71723;-77
2023/02/26 00:48:12;;;;;;;7.40;5.90;;;;;;;1.55;92.94;98104.71;109127;1257;59567;-78
2023/02/26 00:50:47;;;;;;;9.80;6.70;;;;;;;1.46;92.90;98103.29;109137;1257;60419;-83
2023/02/26 00:53:21;;;;;;;10.20;6.10;;;;;;;1.45;92.87;98097.48;109123;1257;73883;-79
2023/02/26 00:55:48;;;;;;;8.80;7.20;;;;;;;1.51;92.54;98112.45;109056;1257;70085;-78
2023/02/26 00:58:17;;;;;;;13.70;8.00;;;;;;;1.47;92.48;98122.92;109185;1257;71352;-80
2023/02/26 01:00:46;;;;;;;10.50;7.50;;;;;;;1.38;92.67;98136.36;109109;1255;61285;-79
2023/02/26 01:03:20;;;;;;;9.70;8.00;;;;;;;1.41;92.79;98145.02;109181;1255;60589;-81
2023/02/26 01:05:48;;;;;;;13.30;7.50;;;;;;;1.41;92.84;98154.99;109320;1255;72731;-77
2023/02/26 01:08:26;;;;;;;9.60;6.80;;;;;;;1.34;93.30;98159.31;109144;1255;68106;-82
2023/02/26 01:10:55;;;;;;;8.70;6.50;;;;;;;1.32;93.64;98155.11;109108;1257;71978;-80
2023/02/26 01:13:24;;;;;;;9.00;6.80;;;;;;;1.43;93.40;98160.61;109121;1255;59178;-83
2023/02/26 01:16:20;;;;;;;8.20;6.90;;;;;;;1.48;92.85;98164.35;108684;1255;60341;-77
2023/02/26 01:19:12;;;;;;;8.90;6.60;;;;;;;1.42;93.21;98157.67;108702;1255;74162;-73
2023/02/26 01:21:43;;;;;;;7.20;5.90;;;;;;;1.38;93.15;98155.72;108557;1255;68309;-73
2023/02/26 01:24:16;;;;;;;7.50;5.60;;;;;;;1.46;92.59;98156.25;108708;1255;71439;-75
2023/02/26 01:26:46;;;;;;;7.60;5.70;;;;;;;1.48;92.56;98156.15;108316;1257;58152;-78
2023/02/26 01:29:15;;;;;;;8.60;5.50;;;;;;;1.41;92.09;98165.71;108461;1255;60530;-79
2023/02/26 01:32:00;;;;;;;7.60;6.00;;;;;;;1.34;91.97;98182.10;108244;1255;75285;-80
2023/02/26 01:34:40;;;;;;;7.30;6.40;;;;;;;1.37;91.84;98190.52;107290;1255;69385;-78
2023/02/26 01:37:18;;;;;;;9.40;7.10;;;;;;;1.33;91.76;98199.79;107642;1255;70765;-80
2023/02/26 01:40:14;;;;;;;9.30;6.40;;;;;;;1.24;91.88;98203.94;106867;1263;60942;-81
2023/02/26 01:42:43;;;;;;;6.90;6.20;;;;;;;1.26;91.71;98193.50;108452;1255;60569;-79
2023/02/26 01:45:28;;;;;;;8.70;7.00;;;;;;;1.22;91.57;98196.75;108681;1255;72915;-83
2023/02/26 01:47:59;;;;;;;7.30;6.00;;;;;;;1.14;91.93;98201.66;108473;1257;69001;-78
2023/02/26 01:50:28;;;;;;;8.50;6.30;;;;;;;1.19;91.94;98211.80;108518;1260;71725;-74
2023/02/26 01:53:14;;;;;;;9.30;7.10;;;;;;;1.17;91.81;98220.90;108037;1255;60353;-76
2023/02/26 01:55:44;;;;;;;7.80;6.40;;;;;;;1.08;91.99;98227.66;107810;1255;61082;-69
2023/02/26 01:58:13;;;;;;;8.40;6.20;;;;;;;1.09;91.97;98236.11;105574;1261;73989;-67
2023/02/26 02:00:41;;;;;;;8.90;6.40;;;;;;;1.10;91.95;98248.18;105389;1256;71981;-71
2023/02/26 02:03:10;;;;;;;8.70;7.20;;;;;;;1.04;92.03;98254.39;106179;1255;74237;-72
2023/02/26 02:05:46;;;;;;;7.40;5.70;;;;;;;0.93;92.41;98254.11;106890;1256;61899;-75
2023/02/26 02:08:14;;;;;;;9.80;5.70;;;;;;;0.95;92.46;98254.44;107103;1256;60369;-74
2023/02/26 02:10:43;;;;;;;8.10;6.10;;;;;;;0.97;92.29;98264.44;105931;1255;75038;-76
2023/02/26 02:13:28;;;;;;;9.00;6.30;;;;;;;0.90;92.53;98258.98;106378;1260;71250;-73
2023/02/26 02:16:15;;;;;;;7.70;6.00;;;;;;;0.83;92.53;98258.80;105986;1255;72638;-73
2023/02/26 02:19:21;;;;;;;8.00;5.90;;;;;;;0.87;92.58;98262.77;106373;1256;62426;-78
2023/02/26 02:22:25;;;;;;;8.40;6.20;;;;;;;0.80;92.40;98269.98;107219;1255;60467;-76
2023/02/26 02:25:06;;;;;;;6.30;4.90;;;;;;;0.76;92.26;98286.02;106931;1257;71616;-76
2023/02/26 02:27:46;;;;;;;8.20;5.70;;;;;;;0.82;92.11;98280.96;106964;1258;68706;-78
2023/02/26 02:30:27;;;;;;;7.90;5.40;;;;;;;0.78;91.99;98289.72;106549;1255;73018;-80
2023/02/26 02:33:01;;;;;;;5.70;4.40;;;;;;;0.75;92.10;98285.33;106650;1259;62260;-77
2023/02/26 02:35:34;;;;;;;7.30;5.40;;;;;;;0.80;91.64;98291.58;107409;1255;60764;-80
2023/02/26 02:38:32;;;;;;;7.20;5.40;;;;;;;0.82;91.47;98298.14;107936;1255;73463;-80
2023/02/26 02:41:10;;;;;;;6.60;5.10;;;;;;;0.74;91.70;98302.14;107586;1257;69958;-80
2023/02/26 02:43:40;;;;;;;5.90;4.90;;;;;;;0.77;91.79;98300.23;106361;1256;71712;-77
2023/02/26 02:46:14;;;;;;;7.80;4.60;;;;;;;0.83;91.59;98309.02;106588;1260;60529;-76
2023/02/26 02:49:09;;;;;;;6.30;4.80;;;;;;;0.76;91.52;98317.58;106583;1256;61189;-75
2023/02/26 02:51:49;;;;;;;7.40;4.80;;;;;;;0.78;91.15;98320.00;107388;1256;74807;-79
2023/02/26 02:54:28;;;;;;;6.50;5.00;;;;;;;0.84;91.05;98313.70;107325;1256;70390;-74
2023/02/26 02:57:02;;;;;;;7.50;5.60;;;;;;;0.81;91.06;98316.27;106997;1259;70509;-80
2023/02/26 02:59:40;;;;;;;7.70;5.70;;;;;;;0.75;91.21;98313.83;106308;1259;61193;-73
2023/02/26 03:02:30;;;;;;;6.80;5.00;;;;;;;0.81;91.27;98308.80;106088;1260;60439;-74
2023/02/26 03:04:58;;;;;;;7.10;5.10;;;;;;;0.79;91.26;98312.25;105920;1261;74160;-74
2023/02/26 03:07:30;;;;;;;7.70;5.70;;;;;;;0.72;91.51;98311.20;106482;1258;70931;-75
2023/02/26 03:09:59;;;;;;;8.70;5.50;;;;;;;0.74;91.42;98325.77;107311;1256;71433;-75
2023/02/26 03:12:32;;;;;;;7.90;5.80;;;;;;;0.81;91.27;98332.36;106320;1256;60897;-73
2023/02/26 03:15:03;;;;;;;9.90;7.30;;;;;;;0.79;91.42;98330.25;106451;1255;60417;-73
2023/02/26 03:17:50;;;;;;;9.40;7.00;;;;;;;0.73;91.54;98339.15;106209;1256;74799;-79
2023/02/26 03:20:18;;;;;;;10.60;7.50;;;;;;;0.77;91.57;98347.98;106253;1258;71261;-72
2023/02/26 03:23:09;;;;;;;7.40;5.90;;;;;;;0.84;91.34;98347.23;106425;1259;73494;-85
2023/02/26 03:25:56;;;;;;;9.30;7.50;;;;;;;0.80;91.32;98353.65;106338;1257;60520;-79
2023/02/26 03:28:28;;;;;;;7.00;5.10;;;;;;;0.72;91.56;98356.33;106563;1260;60544;-79
2023/02/26 03:31:16;;;;;;;7.60;5.30;;;;;;;0.73;91.53;98364.73;106721;1255;72654;-77
2023/02/26 03:33:56;;;;;;;7.10;5.00;;;;;;;0.78;91.43;98370.35;106828;1255;70414;-81
2023/02/26 03:36:32;;;;;;;7.20;5.10;;;;;;;0.76;91.30;98367.63;107022;1257;73475;-83
2023/02/26 03:39:26;;;;;;;9.30;7.00;;;;;;;0.68;91.58;98374.27;108738;1255;61139;-77
2023/02/26 03:41:59;;;;;;;7.80;5.70;;;;;;;0.72;91.59;98375.14;108835;1255;60210;-78
2023/02/26 03:44:39;;;;;;;6.70;5.50;;;;;;;0.78;91.64;98367.95;108836;1255;73807;-74
2023/02/26 03:47:10;;;;;;;9.40;6.70;;;;;;;0.75;91.74;98376.21;108738;1255;70136;-75
2023/02/26 03:49:58;;;;;;;9.30;6.90;;;;;;;0.72;91.89;98373.08;108747;1255;71385;-80
2023/02/26 03:52:28;;;;;;;9.00;5.80;;;;;;;0.78;91.57;98379.32;108764;1255;62045;-80
2023/02/26 03:55:45;;;;;;;6.80;5.30;;;;;;;0.82;91.36;98385.39;108804;1255;60742;-75
2023/02/26 03:58:44;;;;;;;8.40;5.70;;;;;;;0.74;91.48;98384.55;106869;1256;72783;-75
2023/02/26 04:01:59;;;;;;;8.40;6.00;;;;;;;0.74;91.52;98393.63;106477;1261;70644;-76
2023/02/26 04:04:46;;;;;;;7.40;5.90;;;;;;;0.75;91.36;98403.63;106670;1261;73602;-69
2023/02/26 04:07:15;;;;;;;8.40;5.80;;;;;;;0.66;91.67;98415.05;107207;1257;62067;-77
2023/02/26 04:09:45;;;;;;;5.40;4.50;;;;;;;0.67;91.78;98418.63;107927;1256;60007;-75
2023/02/26 04:12:20;;;;;;;6.40;4.70;;;;;;;0.71;91.93;98428.05;107166;1255;74558;-78
2023/02/26 04:14:49;;;;;;;7.50;5.00;;;;;;;0.66;91.84;98445.24;106428;1255;71336;-77
2023/02/26 04:17:18;;;;;;;7.10;5.30;;;;;;;0.57;92.23;98450.12;106319;1255;73882;-75
2023/02/26 04:19:46;;;;;;;8.50;5.10;;;;;;;0.61;92.15;98448.25;106391;1257;62018;-76
2023/02/26 04:22:15;;;;;;;7.50;5.20;;;;;;;0.65;91.88;98448.98;106793;1257;61321;-81
2023/02/26 04:24:43;;;;;;;8.80;6.70;;;;;;;0.68;91.73;98446.96;106143;1263;74176;-82
2023/02/26 04:27:12;;;;;;;8.70;5.70;;;;;;;0.66;91.63;98446.60;106591;1260;70265;-77
2023/02/26 04:29:41;;;;;;;8.00;5.30;;;;;;;0.61;91.83;98449.16;107098;1262;73960;-77
2023/02/26 04:32:10;;;;;;;9.40;5.50;;;;;;;0.65;91.56;98453.12;107881;1257;61459;-80
2023/02/26 04:34:41;;;;;;;12.50;8.80;;;;;;;0.70;91.41;98452.19;107734;1255;60457;-81
2023/02/26 04:37:11;;;;;;;9.40;6.90;;;;;;;0.66;91.29;98450.45;106587;1260;73855;-77
2023/02/26 04:39:40;;;;;;;6.70;5.60;;;;;;;0.68;91.21;98457.95;106137;1260;71180;-76
2023/02/26 04:42:08;;;;;;;7.80;5.40;;;;;;;0.70;90.97;98463.50;105981;1258;72407;-76
2023/02/26 04:44:37;;;;;;;13.30;8.50;;;;;;;0.64;91.13;98473.09;106279;1258;60475;-75
2023/02/26 04:47:06;;;;;;;8.30;5.70;;;;;;;0.66;90.86;98474.53;106281;1262;61460;-71
2023/02/26 04:49:36;;;;;;;8.20;6.50;;;;;;;0.72;90.78;98474.52;106872;1258;73619;-75
2023/02/26 04:52:09;;;;;;;9.30;7.00;;;;;;;0.69;90.64;98481.86;106377;1261;69255;-77
2023/02/26 04:54:37;;;;;;;9.60;6.50;;;;;;;0.67;90.59;98479.81;106185;1261;72513;-70
2023/02/26 04:57:06;;;;;;;8.50;6.20;;;;;;;0.72;90.53;98478.47;106077;1259;60591;-73
2023/02/26 04:59:34;;;;;;;8.80;6.40;;;;;;;0.72;90.46;98481.09;106100;1255;60611;-75
2023/02/26 05:02:03;;;;;;;8.90;5.90;;;;;;;0.66;90.61;98486.50;106048;1256;74806;-70
2023/02/26 05:04:33;;;;;;;8.20;6.20;;;;;;;0.70;90.62;98497.14;105991;1259;70799;-73
2023/02/26 05:07:01;;;;;;;6.50;5.40;;;;;;;0.77;90.48;98506.30;106184;1255;72743;-72
2023/02/26 05:09:30;;;;;;;11.30;6.40;;;;;;;0.75;90.45;98511.48;106950;1257;60416;-74
2023/02/26 05:11:58;;;;;;;8.40;6.50;;;;;;;0.69;90.73;98521.28;107262;1261;60393;-72
2023/02/26 05:14:27;;;;;;;8.20;6.30;;;;;;;0.71;90.70;98532.91;106591;1256;74038;-77
2023/02/26 05:16:56;;;;;;;7.90;5.80;;;;;;;0.78;90.48;98539.95;106085;1264;69631;-76
2023/02/26 05:19:24;;;;;;;8.30;5.90;;;;;;;0.79;90.49;98542.02;105921;1262;73990;-74
2023/02/26 05:21:58;;;;;;;6.70;4.90;;;;;;;0.74;90.66;98538.95;105969;1260;60647;-75
2023/02/26 05:24:26;;;;;;;7.80;6.30;;;;;;;0.79;90.67;98540.28;106187;1256;60836;-81
2023/02/26 05:26:55;;;;;;;7.30;5.40;;;;;;;0.84;90.37;98549.77;106912;1257;74504;-80
2023/02/26 05:29:24;;;;;;;7.90;5.90;;;;;;;0.79;90.35;98552.61;107357;1257;70291;-80
2023/02/26 05:31:53;;;;;;;8.10;5.90;;;;;;;0.82;90.26;98561.29;106987;1256;72426;-78
2023/02/26 05:34:23;;;;;;;6.70;5.50;;;;;;;0.88;89.93;98565.45;106479;1257;61069;-72
2023/02/26 05:36:52;;;;;;;6.90;5.30;;;;;;;0.91;89.97;98561.00;106346;1257;60617;-71
2023/02/26 05:39:20;;;;;;;9.50;5.40;;;;;;;0.85;89.96;98566.20;105770;1260;73438;-71
2023/02/26 05:41:50;;;;;;;6.70;5.50;;;;;;;0.85;90.03;98562.43;106033;1260;71363;-73
2023/02/26 05:44:18;;;;;;;8.50;6.30;;;;;;;0.91;90.02;98566.58;106093;1258;73662;-77
2023/02/26 05:46:47;;;;;;;8.50;5.50;;;;;;;0.89;90.10;98567.63;106137;1256;60634;-79
2023/02/26 05:49:22;;;;;;;7.90;6.00;;;;;;;0.83;90.49;98563.73;106166;1256;60456;-83
2023/02/26 05:51:50;;;;;;;8.00;6.00;;;;;;;0.89;90.54;98573.58;106055;1261;74828;-72
2023/02/26 05:54:19;;;;;;;8.20;5.90;;;;;;;0.95;90.26;98578.95;106101;1260;70260;-73
2023/02/26 05:56:47;;;;;;;7.20;5.80;;;;;;;0.95;90.10;98579.32;106008;1258;71482;-74
2023/02/26 05:59:19;;;;;;;9.00;5.90;;;;;;;0.92;90.45;98578.86;105880;1258;61144;-76
2023/02/26 06:01:48;;;;;;;9.40;6.20;;;;;;;0.97;90.06;98587.33;105852;1260;61381;-79
2023/02/26 06:04:17;;;;;;;9.40;5.90;;;;;;;0.96;90.05;98594.36;105888;1258;75143;-72
2023/02/26 06:06:47;;;;;;;8.40;6.00;;;;;;;0.98;90.18;98588.79;105739;1261;70612;-74
2023/02/26 06:09:16;;;;;;;7.40;5.90;;;;;;;1.04;89.85;98592.61;105920;1261;73944;-72
2023/02/26 06:11:49;;;;;;;9.10;6.20;;;;;;;1.06;89.87;98601.34;106215;1262;60312;-71
2023/02/26 06:14:17;;;;;;;10.60;6.80;;;;;;;1.02;90.01;98606.63;106034;1259;61005;-75
2023/02/26 06:16:46;;;;;;;10.00;6.40;;;;;;;1.06;89.97;98613.36;105900;1257;73785;-72
2023/02/26 06:19:16;;;;;;;10.00;6.80;;;;;;;1.08;89.74;98624.17;106031;1256;70636;-79
2023/02/26 06:21:44;;;;;;;9.90;7.30;;;;;;;1.12;89.70;98630.46;106163;1261;72767;-73
2023/02/26 06:24:13;;;;;;;10.10;7.80;;;;;;;1.17;89.46;98634.16;106079;1258;60468;-74
2023/02/26 06:26:41;;;;;;;9.50;7.10;;;;;;;1.13;89.62;98643.60;106126;1256;60494;-74
2023/02/26 06:29:10;;;;;;;8.30;6.30;;;;;;;1.16;89.78;98645.63;106108;1264;73487;-73
2023/02/26 06:31:44;;;;;;;9.00;6.50;;;;;;;1.20;89.31;98652.08;106015;1260;69910;-78
2023/02/26 06:34:13;;;;;;;11.40;7.70;;;;;;;1.18;89.69;98662.91;106025;1258;74664;-74
2023/02/26 06:36:45;;;;;;;8.50;6.50;;;;;;;1.17;89.41;98668.92;105759;1256;61062;-71
2023/02/26 06:39:13;;;;;;;7.60;5.80;;;;;;;1.25;89.01;98673.79;105483;1261;60533;-71
2023/02/26 06:41:42;;;;;;;8.70;6.00;;;;;;;1.28;88.74;98679.77;105601;1256;73276;-75
2023/02/26 06:44:11;;;;;;;8.30;6.10;;;;;;;1.26;88.72;98689.95;105930;1263;68905;-76
2023/02/26 06:46:40;;;;;;;7.30;5.40;;;;;;;1.21;88.81;98703.43;105975;1260;73085;-78
2023/02/26 06:49:15;;;;;;;8.90;6.60;;;;;;;1.27;88.80;98706.29;106577;1258;61356;-72
2023/02/26 06:51:54;;;;;;;9.10;6.90;;;;;;;1.29;88.71;98706.73;106521;1260;60643;-74
2023/02/26 06:54:29;;;;;;;8.30;6.20;;;;;;;1.25;88.83;98710.14;106333;1260;74097;-76
2023/02/26 06:56:59;;;;;;;10.90;6.20;;;;;;;1.27;89.11;98704.85;106958;1257;70388;-81
2023/02/26 06:59:33;;;;;;;8.10;6.60;;;;;;;1.35;88.95;98710.63;107045;1261;73881;-82
2023/02/26 07:02:25;;;;;;;8.80;6.20;;;;;;;1.33;88.73;98720.02;107302;1258;60435;-81
2023/02/26 07:05:06;;;;;;;8.10;6.60;;;;;;;1.39;88.93;98718.46;107267;1260;60008;-74
2023/02/26 07:07:40;;;;;;;8.80;6.60;;;;;;;1.45;88.66;98718.16;106887;1257;72722;-72
2023/02/26 07:10:13;;;;;;;9.50;6.00;;;;;;;1.42;88.52;98719.42;107390;1258;69294;-77
2023/02/26 07:12:58;;;;;;;8.10;5.50;;;;;;;1.48;88.35;98726.75;108294;1257;72967;-74
2023/02/26 07:15:28;;;;;;;8.70;6.70;;;;;;;1.55;88.00;98726.80;108411;1256;61228;-76
2023/02/26 07:18:01;;;;;;;7.30;5.70;;;;;;;1.56;88.08;98728.16;108453;1257;59726;-76
2023/02/26 07:20:31;;;;;;;8.20;6.40;;;;;;;1.52;88.46;98728.14;108647;1256;74203;-76
2023/02/26 07:22:59;;;;;;;13.00;8.00;;;;;;;1.54;88.49;98731.95;108511;1255;70503;-72
2023/02/26 07:25:28;;;;;;;8.70;6.00;;;;;;;1.67;87.96;98738.31;108055;1257;72722;-72
2023/02/26 07:27:58;;;;;;;9.00;6.70;;;;;;;1.71;87.70;98735.51;108508;1261;59523;-75
2023/02/26 07:30:27;;;;;;;13.50;9.00;;;;;;;1.68;87.81;98737.48;108679;1256;60277;-76
2023/02/26 07:32:56;;;;;;;13.50;8.00;;;;;;;1.73;87.67;98740.39;108265;1256;72182;-75
2023/02/26 07:35:29;;;;;;;11.30;7.20;;;;;;;1.87;87.62;98740.42;108181;1260;70549;-75
2023/02/26 07:37:57;;;;;;;10.30;7.30;;;;;;;1.94;87.73;98749.56;107890;1256;70460;-73
2023/02/26 07:40:26;;;;;;;8.90;7.00;;;;;;;1.95;87.66;98754.87;107497;1263;59587;-73
2023/02/26 07:42:55;;;;;;;12.20;7.60;;;;;;;1.98;87.34;98757.91;107806;1257;59794;-75
2023/02/26 07:45:24;;;;;;;9.10;7.20;;;;;;;2.12;86.77;98761.26;108680;1260;72875;-75
2023/02/26 07:47:54;;;;;;;10.30;7.40;;;;;;;2.15;86.48;98758.13;108317;1258;68871;-75
2023/02/26 07:50:23;;;;;;;10.70;7.60;;;;;;;2.13;86.50;98760.79;108173;1258;73709;-74
2023/02/26 07:52:52;;;;;;;9.90;7.60;;;;;;;2.18;86.19;98765.39;108337;1257;61007;-72
2023/02/26 07:55:24;;;;;;;9.00;7.50;;;;;;;2.28;86.01;98769.96;108471;1257;60450;-73
2023/02/26 07:57:53;;;;;;;9.90;7.50;;;;;;;2.29;85.93;98774.91;108392;1260;72909;-75
2023/02/26 08:00:21;;;;;;;9.00;7.30;;;;;;;2.28;86.12;98772.83;108250;1257;70499;-75
2023/02/26 08:02:52;;;;;;;8.80;7.50;;;;;;;2.31;86.34;98776.61;108263;1261;72391;-77
2023/02/26 08:05:21;;;;;;;9.60;7.60;;;;;;;2.46;85.99;98784.16;107993;1258;60310;-75
2023/02/26 08:07:49;;;;;;;11.20;8.30;;;;;;;2.56;85.32;98782.08;107902;1256;60318;-74
2023/02/26 08:10:19;;;;;;;8.90;7.30;;;;;;;2.57;85.61;98783.86;109126;1260;74181;-77
2023/02/26 08:12:47;;;;;;;11.60;8.10;;;;;;;2.58;84.87;98787.12;108953;1257;68199;-76
2023/02/26 08:15:15;;;;;;;8.90;6.90;;;;;;;2.67;83.75;98788.08;108091;1258;70750;-79
2023/02/26 08:17:46;;;;;;;8.00;7.10;;;;;;;2.71;84.08;98790.25;108162;1255;60250;-74
2023/02/26 08:20:15;;;;;;;9.20;7.10;;;;;;;2.73;84.04;98794.08;108507;1257;59361;-70
2023/02/26 08:22:45;;;;;;;9.00;6.90;;;;;;;2.74;83.19;98788.45;108877;1256;72924;-75
2023/02/26 08:25:14;;;;;;;7.90;6.80;;;;;;;2.79;82.55;98785.73;109001;1257;70277;-77
2023/02/26 08:27:44;;;;;;;8.90;6.40;;;;;;;2.85;82.36;98782.48;108138;1260;71467;-74
2023/02/26 08:30:12;;;;;;;9.90;7.70;;;;;;;2.82;82.10;98776.30;106188;1259;60421;-77
2023/02/26 08:32:41;;;;;;;9.90;7.50;;;;;;;2.76;81.84;98783.20;105704;1260;61078;-75
2023/02/26 08:35:10;;;;;;;9.60;7.20;;;;;;;2.72;82.04;98786.70;105812;1262;71797;-72
2023/02/26 08:37:40;;;;;;;8.70;6.90;;;;;;;2.81;82.40;98791.66;105618;1260;69083;-71
2023/02/26 08:40:09;;;;;;;9.00;7.50;;;;;;;2.83;82.36;98795.45;105631;1256;73489;-68
2023/02/26 08:42:38;;;;;;;8.40;7.20;;;;;;;2.80;81.92;98805.07;105547;1260;60372;-72
2023/02/26 08:45:06;;;;;;;9.30;7.20;;;;;;;2.73;81.88;98808.60;105337;1266;60292;-75
2023/02/26 08:47:35;;;;;;;8.30;6.90;;;;;;;2.79;82.19;98812.15;105618;1262;217032;-73
2023/02/26 08:52:43;;;;;;;9.80;7.60;;;;;;;2.93;82.07;98815.90;102761;1291;600412;-74
2023/02/26 08:55:11;;;;;;;10.00;7.90;;;;;;;2.92;82.24;98821.92;104979;1269;59379;-72
2023/02/26 08:57:39;;;;;;;9.80;7.40;;;;;;;2.95;82.50;98827.55;104887;1272;60377;-72
2023/02/26 09:00:11;;;;;;;10.60;8.00;;;;;;;3.08;81.45;98829.95;104950;1266;72991;-74
2023/02/26 09:02:39;;;;;;;9.50;7.40;;;;;;;3.12;81.74;98827.95;105114;1272;71204;-70
2023/02/26 09:05:08;;;;;;;10.80;7.80;;;;;;;3.15;82.12;98836.76;105095;1269;73830;-72
2023/02/26 09:07:39;;;;;;;11.70;8.10;;;;;;;3.18;81.31;98840.40;105195;1267;59268;-76
2023/02/26 09:10:10;;;;;;;13.10;7.90;;;;;;;3.22;80.30;98840.69;105368;1270;60661;-77
2023/02/26 09:12:38;;;;;;;10.00;7.90;;;;;;;3.28;80.15;98847.80;105868;1264;73086;-74
2023/02/26 09:15:07;;;;;;;9.20;7.70;;;;;;;3.26;80.06;98845.23;105846;1264;69149;-69
2023/02/26 09:17:37;;;;;;;10.50;8.10;;;;;;;3.23;79.97;98851.50;105401;1269;70632;-73
2023/02/26 09:20:08;;;;;;;8.70;7.10;;;;;;;3.26;80.56;98857.67;105436;1267;62386;-69
2023/02/26 09:22:37;;;;;;;10.50;7.60;;;;;;;3.39;79.55;98866.21;105402;1269;59878;-72
2023/02/26 09:25:05;;;;;;;8.40;6.80;;;;;;;3.44;79.29;98867.71;105333;1264;73856;-75
2023/02/26 09:27:35;;;;;;;9.80;7.60;;;;;;;3.43;78.66;98870.09;105610;1267;72509;-75
2023/02/26 09:30:04;;;;;;;10.00;7.50;;;;;;;3.40;78.78;98876.48;105383;1265;71766;-74
2023/02/26 09:32:33;;;;;;;8.60;6.70;;;;;;;3.46;78.84;98884.85;105926;1261;62119;-74
2023/02/26 09:35:02;;;;;;;8.70;6.80;;;;;;;3.55;78.62;98889.05;105397;1260;60290;-74
2023/02/26 09:37:38;;;;;;;8.50;6.40;;;;;;;3.59;78.36;98891.35;105873;1254;71143;-73
2023/02/26 09:40:36;;;;;;;7.50;6.50;;;;;;;3.63;78.05;98899.22;105960;1254;71671;-75
2023/02/26 09:43:31;;;;;;;9.20;7.10;;;;;;;3.70;77.53;98901.81;105919;1255;71704;-75
2023/02/26 09:46:10;;;;;;;11.80;7.60;;;;;;;3.88;77.13;98896.48;105931;1254;59814;-73
2023/02/26 09:48:39;;;;;;;8.20;7.00;;;;;;;3.98;78.30;98896.19;105948;1252;60988;-79
2023/02/26 09:51:11;;;;;;;8.70;6.60;;;;;;;4.13;77.56;98889.54;106021;1266;74015;-71
2023/02/26 09:53:40;;;;;;;6.90;6.20;;;;;;;4.24;76.49;98895.13;105830;1252;70645;-74
2023/02/26 09:56:23;;;;;;;7.40;6.00;;;;;;;4.44;76.00;98892.33;105985;1257;72940;-76
2023/02/26 09:58:58;;;;;;;10.10;7.80;;;;;;;4.56;75.28;98898.39;105710;1254;60579;-74
2023/02/26 10:01:37;;;;;;;9.00;6.50;;;;;;;4.57;74.97;98895.80;106063;1253;60016;-73
2023/02/26 10:04:49;;;;;;;7.70;6.90;;;;;;;4.59;74.62;98901.56;105929;1258;71502;-71
2023/02/26 10:07:32;;;;;;;8.90;6.90;;;;;;;4.62;74.30;98902.13;105997;1254;69626;-74
2023/02/26 10:10:02;;;;;;;8.40;6.50;;;;;;;4.80;74.69;98895.77;106028;1257;73829;-74
2023/02/26 10:12:33;;;;;;;6.80;6.10;;;;;;;5.03;73.99;98897.20;106010;1254;60814;-71
2023/02/26 10:15:12;;;;;;;7.30;5.90;;;;;;;5.09;72.38;98883.56;106134;1252;61547;-75
2023/02/26 10:18:04;;;;;;;7.50;6.60;;;;;;;5.15;72.68;98879.91;106743;1254;72890;-72
2023/02/26 10:20:38;;;;;;;8.50;6.40;;;;;;;5.25;72.21;98881.30;106633;1254;71766;-73
2023/02/26 10:23:25;;;;;;;7.40;6.60;;;;;;;5.38;72.01;98878.80;106013;1257;71540;-72
2023/02/26 10:26:13;;;;;;;10.90;6.70;;;;;;;5.52;71.59;98880.23;106234;1254;61114;-75
2023/02/26 10:29:20;;;;;;;8.50;6.90;;;;;;;5.72;71.60;98888.86;105919;1252;60801;-74
2023/02/26 10:32:12;;;;;;;9.00;6.90;;;;;;;5.81;71.58;98891.82;105996;1253;73274;-76
2023/02/26 10:34:55;;;;;;;11.80;8.40;;;;;;;5.87;71.16;98894.86;106180;1257;70270;-75
2023/02/26 10:37:45;;;;;;;11.00;9.40;;;;;;;5.92;70.76;98898.23;106200;1256;71854;-76
2023/02/26 10:40:30;;;;;;;11.40;9.10;;;;;;;5.88;70.60;98904.56;105948;1254;60391;-75
2023/02/26 10:43:08;;;;;;;10.30;8.40;;;;;;;5.79;70.67;98910.99;106115;1260;59957;-75
2023/02/26 10:45:56;;;;;;;11.90;9.60;;;;;;;5.64;70.85;98909.88;106065;1254;74153;-76
2023/02/26 10:48:47;;;;;;;10.70;9.20;;;;;;;5.63;71.50;98920.14;106443;1254;71127;-75
2023/02/26 10:51:19;;;;;;;10.50;9.10;;;;;;;5.78;71.75;98924.85;106170;1254;72685;-75
2023/02/26 10:53:57;;;;;;;10.80;8.30;;;;;;;5.80;70.92;98923.75;106203;1256;60097;-73
2023/02/26 10:56:28;;;;;;;9.50;8.50;;;;;;;5.73;70.86;98924.45;105958;1257;60336;-74
2023/02/26 10:58:59;;;;;;;10.20;7.70;;;;;;;5.60;70.56;98927.04;106151;1254;71578;-74
2023/02/26 11:01:29;;;;;;;10.00;8.40;;;;;;;5.52;70.67;98922.36;106050;1253;70097;-74
2023/02/26 11:04:11;;;;;;;10.90;8.00;;;;;;;5.50;71.52;98928.08;106071;1257;72905;-75
2023/02/26 11:06:51;;;;;;;11.20;8.40;;;;;;;5.59;71.76;98929.66;106184;1256;62876;-74
2023/02/26 11:09:25;;;;;;;11.30;8.50;;;;;;;5.76;71.61;98934.80;106406;1253;59909;-74
2023/02/26 11:12:09;;;;;;;9.10;7.90;;;;;;;5.86;71.81;98934.20;106024;1261;73217;-71
2023/02/26 11:14:41;;;;;;;8.60;7.60;;;;;;;5.97;71.45;98941.14;106051;1254;69169;-74
2023/02/26 11:17:19;;;;;;;8.30;7.40;;;;;;;6.04;69.76;98938.42;105923;1257;74192;-73
2023/02/26 11:20:16;;;;;;;10.20;8.60;;;;;;;6.10;69.84;98938.91;106544;1251;59617;-71
2023/02/26 11:22:48;;;;;;;9.80;8.10;;;;;;;6.23;69.78;98943.91;106200;1257;61182;-75
2023/02/26 11:25:17;;;;;;;9.30;8.20;;;;;;;6.35;68.74;98952.31;106156;1257;72902;-75
2023/02/26 11:27:47;;;;;;;8.50;7.60;;;;;;;6.35;67.97;98951.79;105960;1253;68987;-71
2023/02/26 11:30:18;;;;;;;11.70;9.20;;;;;;;6.26;68.50;98952.71;105855;1254;73205;-74
2023/02/26 11:32:50;;;;;;;10.10;8.50;;;;;;;6.16;68.69;98961.57;106008;1253;60791;-74
2023/02/26 11:35:21;;;;;;;11.50;9.60;;;;;;;6.00;68.77;98964.77;107018;1253;59618;-76
2023/02/26 11:37:58;;;;;;;12.50;9.80;;;;;;;5.82;69.64;98966.39;107730;1256;72897;-77
2023/02/26 11:40:40;;;;;;;10.10;8.10;;;;;;;5.70;69.91;98981.63;107561;1254;70084;-74
2023/02/26 11:43:13;;;;;;;11.00;8.60;;;;;;;5.59;69.36;98985.42;107313;1253;70486;-72
2023/02/26 11:45:42;;;;;;;9.40;8.40;;;;;;;5.52;69.46;98981.46;105845;1257;60464;-75
2023/02/26 11:48:21;;;;;;;12.60;9.90;;;;;;;5.53;70.11;98985.00;106270;1254;61573;-75
2023/02/26 11:50:52;;;;;;;12.00;9.10;;;;;;;5.65;70.74;98994.65;106143;1257;72108;-74
2023/02/26 11:53:35;;;;;;;9.40;7.90;;;;;;;5.89;70.01;98995.50;106229;1254;70205;-75
2023/02/26 11:56:12;;;;;;;10.90;8.20;;;;;;;5.94;69.73;98995.23;106219;1259;71644;-79
2023/02/26 11:58:43;;;;;;;11.10;9.90;;;;;;;5.88;69.06;98997.77;106466;1254;60064;-74
2023/02/26 12:01:16;;;;;;;12.10;9.80;;;;;;;5.78;69.32;98996.09;106657;1253;60200;-71
2023/02/26 12:03:47;;;;;;;12.40;9.40;;;;;;;5.74;70.11;99002.35;107347;1254;73884;-75
2023/02/26 12:06:20;;;;;;;10.90;9.60;;;;;;;5.73;70.00;98999.81;105920;1253;71066;-74
2023/02/26 12:08:49;;;;;;;11.30;8.70;;;;;;;5.76;70.63;99004.61;105985;1254;72639;-75